sensor_id;sensor_type;location;lat;lon;timestamp;P1;durP1;ratioP1;P2;durP2;ratioP2
64932;SDS011;51446;53.850;10.662;2022-11-15T00:01:28;46.63;;;23.93;;
64932;SDS011;51446;53.850;10.662;2022-11-15T00:03:54;47.03;;;23.37;;
64932;SDS011;51446;53.850;10.662;2022-11-15T00:06:19;45.33;;;22.57;;
64932;SDS011;51446;53.850;10.662;2022-11-15T00:08:44;47.20;;;22.97;;
64932;SDS011;51446;53.850;10.662;2022-11-15T00:11:10;40.70;;;21.77;;
64932;SDS011;51446;53.850;10.662;2022-11-15T00:13:37;40.42;;;22.38;;
64932;SDS011;51446;53.850;10.662;2022-11-15T00:16:02;45.40;;;22.87;;
64932;SDS011;51446;53.850;10.662;2022-11-15T00:18:28;47.50;;;23.23;;
64932;SDS011;51446;53.850;10.662;2022-11-15T00:20:54;43.10;;;23.10;;
64932;SDS011;51446;53.850;10.662;2022-11-15T00:23:20;44.57;;;22.77;;
64932;SDS011;51446;53.850;10.662;2022-11-15T00:25:45;45.00;;;22.73;;
64932;SDS011;51446;53.850;10.662;2022-11-15T00:28:11;42.40;;;23.00;;
64932;SDS011;51446;53.850;10.662;2022-11-15T00:30:36;49.17;;;23.00;;
64932;SDS011;51446;53.850;10.662;2022-11-15T00:33:02;49.42;;;23.70;;
64932;SDS011;51446;53.850;10.662;2022-11-15T00:35:34;48.58;;;22.92;;
64932;SDS011;51446;53.850;10.662;2022-11-15T00:38:00;44.28;;;24.27;;
64932;SDS011;51446;53.850;10.662;2022-11-15T00:40:26;46.47;;;22.88;;
64932;SDS011;51446;53.850;10.662;2022-11-15T00:42:51;44.67;;;22.37;;
64932;SDS011;51446;53.850;10.662;2022-11-15T00:45:16;43.40;;;22.50;;
64932;SDS011;51446;53.850;10.662;2022-11-15T00:47:44;46.77;;;23.17;;
64932;SDS011;51446;53.850;10.662;2022-11-15T00:50:10;45.28;;;23.35;;
64932;SDS011;51446;53.850;10.662;2022-11-15T00:52:35;44.13;;;23.00;;
64932;SDS011;51446;53.850;10.662;2022-11-15T00:55:01;44.43;;;23.53;;
64932;SDS011;51446;53.850;10.662;2022-11-15T00:57:26;48.93;;;24.17;;
64932;SDS011;51446;53.850;10.662;2022-11-15T00:59:51;45.33;;;23.50;;
64932;SDS011;51446;53.850;10.662;2022-11-15T01:02:16;48.10;;;24.57;;
64932;SDS011;51446;53.850;10.662;2022-11-15T01:04:42;49.63;;;24.20;;
64932;SDS011;51446;53.850;10.662;2022-11-15T01:07:07;48.60;;;23.93;;
64932;SDS011;51446;53.850;10.662;2022-11-15T01:09:32;49.57;;;24.70;;
64932;SDS011;51446;53.850;10.662;2022-11-15T01:11:57;43.37;;;23.23;;
64932;SDS011;51446;53.850;10.662;2022-11-15T01:14:23;52.13;;;25.30;;
64932;SDS011;51446;53.850;10.662;2022-11-15T01:16:48;44.77;;;23.17;;
64932;SDS011;51446;53.850;10.662;2022-11-15T01:19:13;48.13;;;23.35;;
64932;SDS011;51446;53.850;10.662;2022-11-15T01:21:38;49.22;;;24.55;;
64932;SDS011;51446;53.850;10.662;2022-11-15T01:24:05;47.47;;;23.48;;
64932;SDS011;51446;53.850;10.662;2022-11-15T01:26:31;55.20;;;25.80;;
64932;SDS011;51446;53.850;10.662;2022-11-15T01:28:56;43.63;;;23.30;;
64932;SDS011;51446;53.850;10.662;2022-11-15T01:31:21;41.67;;;22.03;;
64932;SDS011;51446;53.850;10.662;2022-11-15T01:33:47;48.23;;;24.40;;
64932;SDS011;51446;53.850;10.662;2022-11-15T01:36:17;47.60;;;23.80;;
64932;SDS011;51446;53.850;10.662;2022-11-15T01:38:43;47.13;;;24.03;;
64932;SDS011;51446;53.850;10.662;2022-11-15T01:41:15;45.20;;;23.83;;
64932;SDS011;51446;53.850;10.662;2022-11-15T01:43:42;44.03;;;22.77;;
64932;SDS011;51446;53.850;10.662;2022-11-15T01:46:19;48.57;;;23.50;;
64932;SDS011;51446;53.850;10.662;2022-11-15T01:48:52;48.85;;;24.40;;
64932;SDS011;51446;53.850;10.662;2022-11-15T01:51:20;46.72;;;24.08;;
64932;SDS011;51446;53.850;10.662;2022-11-15T01:53:49;49.55;;;24.70;;
64932;SDS011;51446;53.850;10.662;2022-11-15T01:56:21;45.87;;;23.57;;
64932;SDS011;51446;53.850;10.662;2022-11-15T01:58:51;43.25;;;22.95;;
64932;SDS011;51446;53.850;10.662;2022-11-15T02:01:19;45.58;;;22.90;;
64932;SDS011;51446;53.850;10.662;2022-11-15T02:03:50;45.00;;;22.98;;
64932;SDS011;51446;53.850;10.662;2022-11-15T02:06:19;48.50;;;23.50;;
64932;SDS011;51446;53.850;10.662;2022-11-15T02:08:46;44.05;;;22.80;;
64932;SDS011;51446;53.850;10.662;2022-11-15T02:11:12;51.17;;;25.25;;
64932;SDS011;51446;53.850;10.662;2022-11-15T02:13:37;42.57;;;22.77;;
64932;SDS011;51446;53.850;10.662;2022-11-15T02:16:23;44.40;;;23.47;;
64932;SDS011;51446;53.850;10.662;2022-11-15T02:18:55;48.50;;;23.75;;
64932;SDS011;51446;53.850;10.662;2022-11-15T02:21:43;43.50;;;23.27;;
64932;SDS011;51446;53.850;10.662;2022-11-15T02:30:20;45.95;;;23.25;;
64932;SDS011;51446;53.850;10.662;2022-11-15T02:32:48;46.60;;;23.67;;
64932;SDS011;51446;53.850;10.662;2022-11-15T02:37:58;42.22;;;22.38;;
64932;SDS011;51446;53.850;10.662;2022-11-15T02:40:52;46.13;;;21.90;;
64932;SDS011;51446;53.850;10.662;2022-11-15T02:43:25;38.10;;;20.48;;
64932;SDS011;51446;53.850;10.662;2022-11-15T02:49:10;36.57;;;20.97;;
64932;SDS011;51446;53.850;10.662;2022-11-15T02:51:38;42.40;;;21.25;;
64932;SDS011;51446;53.850;10.662;2022-11-15T02:54:04;41.42;;;21.02;;
64932;SDS011;51446;53.850;10.662;2022-11-15T02:56:30;43.10;;;21.50;;
64932;SDS011;51446;53.850;10.662;2022-11-15T02:58:58;38.75;;;20.65;;
64932;SDS011;51446;53.850;10.662;2022-11-15T03:01:54;44.60;;;21.65;;
64932;SDS011;51446;53.850;10.662;2022-11-15T03:07:29;38.58;;;20.45;;
64932;SDS011;51446;53.850;10.662;2022-11-15T03:10:05;38.13;;;20.48;;
64932;SDS011;51446;53.850;10.662;2022-11-15T03:12:40;38.90;;;19.87;;
64932;SDS011;51446;53.850;10.662;2022-11-15T03:17:58;41.33;;;21.90;;
64932;SDS011;51446;53.850;10.662;2022-11-15T03:20:27;39.05;;;20.17;;
64932;SDS011;51446;53.850;10.662;2022-11-15T03:22:55;41.72;;;21.98;;
64932;SDS011;51446;53.850;10.662;2022-11-15T03:25:25;41.77;;;22.00;;
64932;SDS011;51446;53.850;10.662;2022-11-15T03:27:54;41.03;;;21.70;;
64932;SDS011;51446;53.850;10.662;2022-11-15T03:30:22;43.42;;;22.45;;
64932;SDS011;51446;53.850;10.662;2022-11-15T03:32:50;47.47;;;23.27;;
64932;SDS011;51446;53.850;10.662;2022-11-15T03:35:20;50.38;;;23.70;;
64932;SDS011;51446;53.850;10.662;2022-11-15T03:40:44;43.50;;;22.60;;
64932;SDS011;51446;53.850;10.662;2022-11-15T03:43:24;45.30;;;22.83;;
64932;SDS011;51446;53.850;10.662;2022-11-15T03:46:25;40.65;;;21.70;;
64932;SDS011;51446;53.850;10.662;2022-11-15T03:49:06;41.10;;;22.52;;
64932;SDS011;51446;53.850;10.662;2022-11-15T03:51:36;40.08;;;20.98;;
64932;SDS011;51446;53.850;10.662;2022-11-15T03:54:04;48.43;;;22.67;;
64932;SDS011;51446;53.850;10.662;2022-11-15T03:56:30;42.20;;;21.40;;
64932;SDS011;51446;53.850;10.662;2022-11-15T03:58:55;49.30;;;22.73;;
64932;SDS011;51446;53.850;10.662;2022-11-15T04:01:20;46.87;;;23.57;;
64932;SDS011;51446;53.850;10.662;2022-11-15T04:03:45;50.87;;;26.43;;
64932;SDS011;51446;53.850;10.662;2022-11-15T04:06:11;50.03;;;25.40;;
64932;SDS011;51446;53.850;10.662;2022-11-15T04:08:36;45.97;;;23.53;;
64932;SDS011;51446;53.850;10.662;2022-11-15T04:11:01;50.23;;;22.53;;
64932;SDS011;51446;53.850;10.662;2022-11-15T04:13:27;46.17;;;22.30;;
64932;SDS011;51446;53.850;10.662;2022-11-15T04:15:52;46.27;;;22.97;;
64932;SDS011;51446;53.850;10.662;2022-11-15T04:18:17;41.53;;;21.03;;
64932;SDS011;51446;53.850;10.662;2022-11-15T04:20:42;47.63;;;22.33;;
64932;SDS011;51446;53.850;10.662;2022-11-15T04:23:26;39.70;;;22.23;;
64932;SDS011;51446;53.850;10.662;2022-11-15T04:26:30;44.38;;;21.27;;
64932;SDS011;51446;53.850;10.662;2022-11-15T04:28:55;42.80;;;21.03;;
64932;SDS011;51446;53.850;10.662;2022-11-15T04:31:39;40.70;;;20.48;;
64932;SDS011;51446;53.850;10.662;2022-11-15T04:34:05;42.20;;;21.30;;
64932;SDS011;51446;53.850;10.662;2022-11-15T04:36:30;38.77;;;21.50;;
64932;SDS011;51446;53.850;10.662;2022-11-15T04:39:14;48.33;;;22.55;;
64932;SDS011;51446;53.850;10.662;2022-11-15T04:41:39;45.57;;;22.27;;
64932;SDS011;51446;53.850;10.662;2022-11-15T04:44:04;43.50;;;21.83;;
64932;SDS011;51446;53.850;10.662;2022-11-15T04:46:30;39.83;;;20.77;;
64932;SDS011;51446;53.850;10.662;2022-11-15T04:48:55;40.87;;;19.77;;
64932;SDS011;51446;53.850;10.662;2022-11-15T04:51:20;37.23;;;20.07;;
64932;SDS011;51446;53.850;10.662;2022-11-15T04:53:46;40.17;;;21.00;;
64932;SDS011;51446;53.850;10.662;2022-11-15T04:56:11;35.70;;;20.57;;
64932;SDS011;51446;53.850;10.662;2022-11-15T04:58:36;41.17;;;22.43;;
64932;SDS011;51446;53.850;10.662;2022-11-15T05:01:08;40.17;;;22.00;;
64932;SDS011;51446;53.850;10.662;2022-11-15T05:03:39;34.63;;;20.27;;
64932;SDS011;51446;53.850;10.662;2022-11-15T05:06:24;32.90;;;19.27;;
64932;SDS011;51446;53.850;10.662;2022-11-15T05:08:49;38.60;;;20.30;;
64932;SDS011;51446;53.850;10.662;2022-11-15T05:11:14;38.90;;;20.10;;
64932;SDS011;51446;53.850;10.662;2022-11-15T05:13:39;38.93;;;20.13;;
64932;SDS011;51446;53.850;10.662;2022-11-15T05:16:05;35.20;;;18.83;;
64932;SDS011;51446;53.850;10.662;2022-11-15T05:18:30;34.60;;;19.63;;
64932;SDS011;51446;53.850;10.662;2022-11-15T05:20:56;32.93;;;18.23;;
64932;SDS011;51446;53.850;10.662;2022-11-15T05:23:21;40.57;;;19.07;;
64932;SDS011;51446;53.850;10.662;2022-11-15T05:25:46;38.17;;;20.00;;
64932;SDS011;51446;53.850;10.662;2022-11-15T05:28:12;34.63;;;18.73;;
64932;SDS011;51446;53.850;10.662;2022-11-15T05:30:37;37.07;;;19.53;;
64932;SDS011;51446;53.850;10.662;2022-11-15T05:33:02;35.23;;;18.80;;
64932;SDS011;51446;53.850;10.662;2022-11-15T05:35:38;35.13;;;18.52;;
64932;SDS011;51446;53.850;10.662;2022-11-15T05:38:06;37.55;;;19.50;;
64932;SDS011;51446;53.850;10.662;2022-11-15T05:40:32;33.63;;;18.90;;
64932;SDS011;51446;53.850;10.662;2022-11-15T05:42:59;36.47;;;19.45;;
64932;SDS011;51446;53.850;10.662;2022-11-15T05:45:26;33.80;;;19.08;;
64932;SDS011;51446;53.850;10.662;2022-11-15T05:47:51;37.60;;;18.77;;
64932;SDS011;51446;53.850;10.662;2022-11-15T05:50:20;34.55;;;19.48;;
64932;SDS011;51446;53.850;10.662;2022-11-15T05:52:45;34.83;;;19.53;;
64932;SDS011;51446;53.850;10.662;2022-11-15T05:55:11;37.75;;;19.23;;
64932;SDS011;51446;53.850;10.662;2022-11-15T05:57:38;38.78;;;20.42;;
64932;SDS011;51446;53.850;10.662;2022-11-15T06:00:03;36.37;;;19.10;;
64932;SDS011;51446;53.850;10.662;2022-11-15T06:02:29;37.45;;;19.45;;
64932;SDS011;51446;53.850;10.662;2022-11-15T06:04:54;34.33;;;18.57;;
64932;SDS011;51446;53.850;10.662;2022-11-15T06:07:20;33.43;;;18.37;;
64932;SDS011;51446;53.850;10.662;2022-11-15T06:09:45;35.50;;;19.03;;
64932;SDS011;51446;53.850;10.662;2022-11-15T06:12:10;34.80;;;18.47;;
64932;SDS011;51446;53.850;10.662;2022-11-15T06:14:36;37.77;;;18.87;;
64932;SDS011;51446;53.850;10.662;2022-11-15T06:17:01;28.87;;;16.87;;
64932;SDS011;51446;53.850;10.662;2022-11-15T06:19:27;34.10;;;18.95;;
64932;SDS011;51446;53.850;10.662;2022-11-15T06:21:57;32.88;;;18.77;;
64932;SDS011;51446;53.850;10.662;2022-11-15T06:24:22;32.40;;;18.90;;
64932;SDS011;51446;53.850;10.662;2022-11-15T06:26:48;31.20;;;18.20;;
64932;SDS011;51446;53.850;10.662;2022-11-15T06:29:13;34.77;;;19.33;;
64932;SDS011;51446;53.850;10.662;2022-11-15T06:31:38;35.83;;;18.90;;
64932;SDS011;51446;53.850;10.662;2022-11-15T06:34:03;33.47;;;18.53;;
64932;SDS011;51446;53.850;10.662;2022-11-15T06:36:29;35.43;;;19.47;;
64932;SDS011;51446;53.850;10.662;2022-11-15T06:38:54;35.23;;;19.10;;
64932;SDS011;51446;53.850;10.662;2022-11-15T06:41:19;33.37;;;18.33;;
64932;SDS011;51446;53.850;10.662;2022-11-15T06:43:46;33.72;;;18.40;;
64932;SDS011;51446;53.850;10.662;2022-11-15T06:46:11;36.90;;;18.70;;
64932;SDS011;51446;53.850;10.662;2022-11-15T06:48:36;30.83;;;18.13;;
64932;SDS011;51446;53.850;10.662;2022-11-15T06:51:02;34.17;;;17.97;;
64932;SDS011;51446;53.850;10.662;2022-11-15T06:53:29;31.02;;;17.25;;
64932;SDS011;51446;53.850;10.662;2022-11-15T06:56:02;31.80;;;18.17;;
64932;SDS011;51446;53.850;10.662;2022-11-15T06:58:29;30.47;;;16.97;;
64932;SDS011;51446;53.850;10.662;2022-11-15T07:00:58;29.92;;;17.73;;
64932;SDS011;51446;53.850;10.662;2022-11-15T07:03:24;29.00;;;17.03;;
64932;SDS011;51446;53.850;10.662;2022-11-15T07:05:53;30.63;;;17.10;;
64932;SDS011;51446;53.850;10.662;2022-11-15T07:08:21;30.08;;;16.80;;
64932;SDS011;51446;53.850;10.662;2022-11-15T07:10:47;32.05;;;18.52;;
64932;SDS011;51446;53.850;10.662;2022-11-15T07:13:13;36.73;;;19.07;;
64932;SDS011;51446;53.850;10.662;2022-11-15T07:15:38;27.65;;;16.85;;
64932;SDS011;51446;53.850;10.662;2022-11-15T07:18:03;31.90;;;17.77;;
64932;SDS011;51446;53.850;10.662;2022-11-15T07:20:29;31.30;;;17.20;;
64932;SDS011;51446;53.850;10.662;2022-11-15T07:23:01;29.53;;;17.40;;
64932;SDS011;51446;53.850;10.662;2022-11-15T07:25:27;27.97;;;17.03;;
64932;SDS011;51446;53.850;10.662;2022-11-15T07:27:56;30.45;;;16.58;;
64932;SDS011;51446;53.850;10.662;2022-11-15T07:30:22;28.35;;;16.15;;
64932;SDS011;51446;53.850;10.662;2022-11-15T07:32:51;28.63;;;15.93;;
64932;SDS011;51446;53.850;10.662;2022-11-15T07:35:18;27.33;;;15.47;;
64932;SDS011;51446;53.850;10.662;2022-11-15T07:37:43;28.07;;;16.47;;
64932;SDS011;51446;53.850;10.662;2022-11-15T07:40:09;31.90;;;18.65;;
64932;SDS011;51446;53.850;10.662;2022-11-15T07:42:34;27.92;;;16.20;;
64932;SDS011;51446;53.850;10.662;2022-11-15T07:45:18;30.23;;;16.65;;
64932;SDS011;51446;53.850;10.662;2022-11-15T07:47:45;30.07;;;16.53;;
64932;SDS011;51446;53.850;10.662;2022-11-15T07:50:11;25.60;;;16.00;;
64932;SDS011;51446;53.850;10.662;2022-11-15T07:52:36;26.40;;;15.70;;
64932;SDS011;51446;53.850;10.662;2022-11-15T07:55:01;28.38;;;15.73;;
64932;SDS011;51446;53.850;10.662;2022-11-15T07:57:27;28.13;;;16.37;;
64932;SDS011;51446;53.850;10.662;2022-11-15T07:59:52;25.50;;;15.83;;
64932;SDS011;51446;53.850;10.662;2022-11-15T08:02:18;24.98;;;14.70;;
64932;SDS011;51446;53.850;10.662;2022-11-15T08:04:43;28.67;;;15.23;;
64932;SDS011;51446;53.850;10.662;2022-11-15T08:07:09;25.93;;;15.50;;
64932;SDS011;51446;53.850;10.662;2022-11-15T08:09:34;23.00;;;15.07;;
64932;SDS011;51446;53.850;10.662;2022-11-15T08:11:59;25.17;;;14.53;;
64932;SDS011;51446;53.850;10.662;2022-11-15T08:14:25;26.73;;;15.03;;
64932;SDS011;51446;53.850;10.662;2022-11-15T08:16:50;24.97;;;14.47;;
64932;SDS011;51446;53.850;10.662;2022-11-15T08:19:15;22.67;;;14.00;;
64932;SDS011;51446;53.850;10.662;2022-11-15T08:21:40;23.83;;;15.30;;
64932;SDS011;51446;53.850;10.662;2022-11-15T08:24:07;27.20;;;15.17;;
64932;SDS011;51446;53.850;10.662;2022-11-15T08:26:34;26.98;;;14.98;;
64932;SDS011;51446;53.850;10.662;2022-11-15T08:29:00;22.35;;;14.30;;
64932;SDS011;51446;53.850;10.662;2022-11-15T08:31:25;23.30;;;13.48;;
64932;SDS011;51446;53.850;10.662;2022-11-15T08:33:50;19.00;;;13.48;;
64932;SDS011;51446;53.850;10.662;2022-11-15T08:36:16;24.15;;;14.40;;
64932;SDS011;51446;53.850;10.662;2022-11-15T08:38:42;22.23;;;14.13;;
64932;SDS011;51446;53.850;10.662;2022-11-15T08:41:09;22.88;;;14.18;;
64932;SDS011;51446;53.850;10.662;2022-11-15T08:43:41;23.42;;;13.77;;
64932;SDS011;51446;53.850;10.662;2022-11-15T08:46:07;21.27;;;13.93;;
64932;SDS011;51446;53.850;10.662;2022-11-15T08:48:36;21.55;;;13.50;;
64932;SDS011;51446;53.850;10.662;2022-11-15T08:51:02;21.33;;;13.33;;
64932;SDS011;51446;53.850;10.662;2022-11-15T08:53:27;22.40;;;13.70;;
64932;SDS011;51446;53.850;10.662;2022-11-15T08:55:52;23.23;;;13.37;;
64932;SDS011;51446;53.850;10.662;2022-11-15T08:58:17;18.80;;;12.13;;
64932;SDS011;51446;53.850;10.662;2022-11-15T09:00:43;20.53;;;13.30;;
64932;SDS011;51446;53.850;10.662;2022-11-15T09:03:08;23.77;;;13.80;;
64932;SDS011;51446;53.850;10.662;2022-11-15T09:05:35;21.55;;;13.55;;
64932;SDS011;51446;53.850;10.662;2022-11-15T09:08:02;22.95;;;13.20;;
64932;SDS011;51446;53.850;10.662;2022-11-15T09:10:28;20.95;;;12.98;;
64932;SDS011;51446;53.850;10.662;2022-11-15T09:12:53;24.53;;;13.17;;
64932;SDS011;51446;53.850;10.662;2022-11-15T09:15:18;22.50;;;13.20;;
64932;SDS011;51446;53.850;10.662;2022-11-15T09:17:44;19.10;;;13.23;;
64932;SDS011;51446;53.850;10.662;2022-11-15T09:20:10;19.35;;;13.07;;
64932;SDS011;51446;53.850;10.662;2022-11-15T09:22:35;20.35;;;13.48;;
64932;SDS011;51446;53.850;10.662;2022-11-15T09:25:01;22.50;;;13.80;;
64932;SDS011;51446;53.850;10.662;2022-11-15T09:27:28;20.33;;;12.53;;
64932;SDS011;51446;53.850;10.662;2022-11-15T09:29:54;19.67;;;12.75;;
64932;SDS011;51446;53.850;10.662;2022-11-15T09:32:19;25.33;;;13.30;;
64932;SDS011;51446;53.850;10.662;2022-11-15T09:34:45;21.10;;;12.83;;
64932;SDS011;51446;53.850;10.662;2022-11-15T09:37:10;20.10;;;12.32;;
64932;SDS011;51446;53.850;10.662;2022-11-15T09:39:37;21.30;;;13.27;;
64932;SDS011;51446;53.850;10.662;2022-11-15T09:47:40;19.65;;;12.43;;
64932;SDS011;51446;53.850;10.662;2022-11-15T09:50:40;18.13;;;12.30;;
64932;SDS011;51446;53.850;10.662;2022-11-15T09:53:12;22.90;;;12.57;;
64932;SDS011;51446;53.850;10.662;2022-11-15T09:56:00;20.57;;;12.27;;
64932;SDS011;51446;53.850;10.662;2022-11-15T09:58:31;20.10;;;12.02;;
64932;SDS011;51446;53.850;10.662;2022-11-15T10:01:03;24.50;;;13.30;;
64932;SDS011;51446;53.850;10.662;2022-11-15T10:03:36;17.65;;;11.98;;
64932;SDS011;51446;53.850;10.662;2022-11-15T10:06:08;17.60;;;12.20;;
64932;SDS011;51446;53.850;10.662;2022-11-15T10:08:43;20.00;;;12.90;;
64932;SDS011;51446;53.850;10.662;2022-11-15T10:11:17;18.73;;;11.93;;
64932;SDS011;51446;53.850;10.662;2022-11-15T10:13:46;19.08;;;12.45;;
64932;SDS011;51446;53.850;10.662;2022-11-15T10:19:19;17.88;;;11.85;;
64932;SDS011;51446;53.850;10.662;2022-11-15T10:22:20;16.50;;;11.10;;
64932;SDS011;51446;53.850;10.662;2022-11-15T10:24:50;19.90;;;12.43;;
64932;SDS011;51446;53.850;10.662;2022-11-15T10:27:18;19.25;;;11.38;;
64932;SDS011;51446;53.850;10.662;2022-11-15T10:29:48;19.27;;;11.70;;
64932;SDS011;51446;53.850;10.662;2022-11-15T10:32:16;20.83;;;12.02;;
64932;SDS011;51446;53.850;10.662;2022-11-15T10:34:42;16.20;;;11.53;;
64932;SDS011;51446;53.850;10.662;2022-11-15T10:37:08;17.90;;;11.38;;
64932;SDS011;51446;53.850;10.662;2022-11-15T10:39:33;18.17;;;12.07;;
64932;SDS011;51446;53.850;10.662;2022-11-15T10:42:14;19.37;;;11.70;;
64932;SDS011;51446;53.850;10.662;2022-11-15T10:44:52;20.15;;;12.18;;
64932;SDS011;51446;53.850;10.662;2022-11-15T10:47:25;16.77;;;11.47;;
64932;SDS011;51446;53.850;10.662;2022-11-15T10:52:25;17.75;;;10.98;;
64932;SDS011;51446;53.850;10.662;2022-11-15T10:54:54;20.98;;;11.77;;
64932;SDS011;51446;53.850;10.662;2022-11-15T10:57:23;18.48;;;11.82;;
64932;SDS011;51446;53.850;10.662;2022-11-15T10:59:53;17.50;;;11.63;;
64932;SDS011;51446;53.850;10.662;2022-11-15T11:04:57;16.15;;;11.73;;
64932;SDS011;51446;53.850;10.662;2022-11-15T11:07:27;16.88;;;10.68;;
64932;SDS011;51446;53.850;10.662;2022-11-15T11:10:28;17.90;;;11.73;;
64932;SDS011;51446;53.850;10.662;2022-11-15T11:12:46;18.40;;;11.40;;
64932;SDS011;51446;53.850;10.662;2022-11-15T11:15:12;17.40;;;11.53;;
64932;SDS011;51446;53.850;10.662;2022-11-15T11:17:57;20.08;;;11.35;;
64932;SDS011;51446;53.850;10.662;2022-11-15T11:20:31;16.83;;;11.00;;
64932;SDS011;51446;53.850;10.662;2022-11-15T11:23:03;16.73;;;10.73;;
64932;SDS011;51446;53.850;10.662;2022-11-15T11:25:44;18.95;;;11.18;;
64932;SDS011;51446;53.850;10.662;2022-11-15T11:34:24;18.03;;;11.13;;
64932;SDS011;51446;53.850;10.662;2022-11-15T11:37:11;17.35;;;11.38;;
64932;SDS011;51446;53.850;10.662;2022-11-15T11:47:50;17.30;;;10.57;;
64932;SDS011;51446;53.850;10.662;2022-11-15T11:50:23;17.40;;;10.63;;
64932;SDS011;51446;53.850;10.662;2022-11-15T11:53:03;17.30;;;10.82;;
64932;SDS011;51446;53.850;10.662;2022-11-15T11:55:43;16.77;;;10.40;;
64932;SDS011;51446;53.850;10.662;2022-11-15T11:58:16;16.98;;;9.82;;
64932;SDS011;51446;53.850;10.662;2022-11-15T12:01:31;17.33;;;10.37;;
64932;SDS011;51446;53.850;10.662;2022-11-15T12:03:35;15.45;;;10.35;;
64932;SDS011;51446;53.850;10.662;2022-11-15T12:09:11;16.05;;;10.32;;
64932;SDS011;51446;53.850;10.662;2022-11-15T12:12:02;16.45;;;10.23;;
64932;SDS011;51446;53.850;10.662;2022-11-15T12:17:08;16.88;;;11.10;;
64932;SDS011;51446;53.850;10.662;2022-11-15T12:19:35;16.70;;;11.52;;
64932;SDS011;51446;53.850;10.662;2022-11-15T12:24:37;15.60;;;9.85;;
64932;SDS011;51446;53.850;10.662;2022-11-15T12:29:50;17.10;;;10.13;;
64932;SDS011;51446;53.850;10.662;2022-11-15T12:32:26;15.13;;;9.95;;
64932;SDS011;51446;53.850;10.662;2022-11-15T12:34:55;16.03;;;9.50;;
64932;SDS011;51446;53.850;10.662;2022-11-15T12:37:46;13.55;;;9.90;;
64932;SDS011;51446;53.850;10.662;2022-11-15T12:40:17;14.10;;;9.18;;
64932;SDS011;51446;53.850;10.662;2022-11-15T12:43:03;15.35;;;9.75;;
64932;SDS011;51446;53.850;10.662;2022-11-15T12:45:41;15.85;;;9.40;;
64932;SDS011;51446;53.850;10.662;2022-11-15T12:48:45;14.23;;;9.07;;
64932;SDS011;51446;53.850;10.662;2022-11-15T12:50:59;14.40;;;8.18;;
64932;SDS011;51446;53.850;10.662;2022-11-15T12:56:23;15.50;;;10.50;;
64932;SDS011;51446;53.850;10.662;2022-11-15T12:59:00;14.63;;;9.05;;
64932;SDS011;51446;53.850;10.662;2022-11-15T13:06:38;16.00;;;9.57;;
64932;SDS011;51446;53.850;10.662;2022-11-15T13:11:59;16.27;;;10.17;;
64932;SDS011;51446;53.850;10.662;2022-11-15T13:14:38;15.50;;;9.07;;
64932;SDS011;51446;53.850;10.662;2022-11-15T13:19:49;13.15;;;9.13;;
64932;SDS011;51446;53.850;10.662;2022-11-15T13:22:22;14.55;;;8.82;;
64932;SDS011;51446;53.850;10.662;2022-11-15T13:28:21;12.80;;;8.93;;
64932;SDS011;51446;53.850;10.662;2022-11-15T13:30:56;13.30;;;9.02;;
64932;SDS011;51446;53.850;10.662;2022-11-15T13:33:32;13.93;;;8.45;;
64932;SDS011;51446;53.850;10.662;2022-11-15T13:36:13;13.60;;;8.65;;
64932;SDS011;51446;53.850;10.662;2022-11-15T13:38:42;10.40;;;7.70;;
64932;SDS011;51446;53.850;10.662;2022-11-15T13:41:27;12.38;;;7.65;;
64932;SDS011;51446;53.850;10.662;2022-11-15T13:43:57;12.77;;;8.68;;
64932;SDS011;51446;53.850;10.662;2022-11-15T13:46:27;11.38;;;7.97;;
64932;SDS011;51446;53.850;10.662;2022-11-15T13:49:02;12.32;;;8.10;;
64932;SDS011;51446;53.850;10.662;2022-11-15T13:51:48;12.50;;;8.55;;
64932;SDS011;51446;53.850;10.662;2022-11-15T13:56:56;13.43;;;8.10;;
64932;SDS011;51446;53.850;10.662;2022-11-15T13:59:26;12.05;;;8.15;;
64932;SDS011;51446;53.850;10.662;2022-11-15T14:01:56;13.45;;;9.05;;
64932;SDS011;51446;53.850;10.662;2022-11-15T14:04:25;16.65;;;8.77;;
64932;SDS011;51446;53.850;10.662;2022-11-15T14:06:56;11.65;;;7.88;;
64932;SDS011;51446;53.850;10.662;2022-11-15T14:12:01;17.20;;;9.55;;
64932;SDS011;51446;53.850;10.662;2022-11-15T14:14:45;14.23;;;8.85;;
64932;SDS011;51446;53.850;10.662;2022-11-15T14:17:21;15.15;;;9.05;;
64932;SDS011;51446;53.850;10.662;2022-11-15T14:19:48;14.30;;;8.65;;
64932;SDS011;51446;53.850;10.662;2022-11-15T14:25:03;14.68;;;9.15;;
64932;SDS011;51446;53.850;10.662;2022-11-15T14:27:31;14.40;;;9.52;;
64932;SDS011;51446;53.850;10.662;2022-11-15T14:29:57;14.98;;;8.80;;
64932;SDS011;51446;53.850;10.662;2022-11-15T14:32:27;14.20;;;9.10;;
64932;SDS011;51446;53.850;10.662;2022-11-15T14:34:57;16.15;;;8.90;;
64932;SDS011;51446;53.850;10.662;2022-11-15T14:37:29;15.67;;;9.83;;
64932;SDS011;51446;53.850;10.662;2022-11-15T14:40:05;15.77;;;9.30;;
64932;SDS011;51446;53.850;10.662;2022-11-15T14:42:31;18.50;;;9.75;;
64932;SDS011;51446;53.850;10.662;2022-11-15T14:44:57;14.93;;;9.18;;
64932;SDS011;51446;53.850;10.662;2022-11-15T14:47:23;14.70;;;9.23;;
64932;SDS011;51446;53.850;10.662;2022-11-15T14:49:48;16.57;;;9.50;;
64932;SDS011;51446;53.850;10.662;2022-11-15T14:52:21;14.87;;;9.50;;
64932;SDS011;51446;53.850;10.662;2022-11-15T14:54:48;13.80;;;9.50;;
64932;SDS011;51446;53.850;10.662;2022-11-15T14:57:13;15.93;;;10.20;;
64932;SDS011;51446;53.850;10.662;2022-11-15T14:59:38;20.70;;;10.20;;
64932;SDS011;51446;53.850;10.662;2022-11-15T15:02:08;16.53;;;10.40;;
64932;SDS011;51446;53.850;10.662;2022-11-15T15:04:44;14.27;;;10.27;;
64932;SDS011;51446;53.850;10.662;2022-11-15T15:07:10;15.40;;;10.33;;
64932;SDS011;51446;53.850;10.662;2022-11-15T15:09:35;14.17;;;9.80;;
64932;SDS011;51446;53.850;10.662;2022-11-15T15:12:00;15.03;;;10.27;;
64932;SDS011;51446;53.850;10.662;2022-11-15T15:14:25;16.30;;;10.83;;
64932;SDS011;51446;53.850;10.662;2022-11-15T15:16:51;16.47;;;10.20;;
64932;SDS011;51446;53.850;10.662;2022-11-15T15:19:16;16.63;;;10.20;;
64932;SDS011;51446;53.850;10.662;2022-11-15T15:21:41;15.80;;;10.60;;
64932;SDS011;51446;53.850;10.662;2022-11-15T15:24:08;16.83;;;10.15;;
64932;SDS011;51446;53.850;10.662;2022-11-15T15:26:38;16.48;;;10.45;;
64932;SDS011;51446;53.850;10.662;2022-11-15T15:29:04;15.25;;;9.70;;
64932;SDS011;51446;53.850;10.662;2022-11-15T15:31:29;20.83;;;12.10;;
64932;SDS011;51446;53.850;10.662;2022-11-15T15:33:55;21.13;;;11.47;;
64932;SDS011;51446;53.850;10.662;2022-11-15T15:36:20;20.87;;;11.50;;
64932;SDS011;51446;53.850;10.662;2022-11-15T15:38:45;18.27;;;10.98;;
64932;SDS011;51446;53.850;10.662;2022-11-15T15:41:12;16.50;;;11.15;;
64932;SDS011;51446;53.850;10.662;2022-11-15T15:43:38;17.83;;;11.02;;
64932;SDS011;51446;53.850;10.662;2022-11-15T15:46:04;16.37;;;10.73;;
64932;SDS011;51446;53.850;10.662;2022-11-15T15:48:32;16.17;;;10.65;;